Time;durP1;ratioP1;P1;durP2;ratioP2;P2;SDS_P1;SDS_P2;PMS_P1;PMS_P2;Temp;Humidity;BMP_temperature;BMP_pressure;BME280_temperature;BME280_humidity;BME280_pressure;Samples;Min_cycle;Max_cycle;Signal;HPM_P1;HPM_P2
2023/12/15 00:00:29;;;;;;;0.60;0.60;;;;;;;2.53;100.00;97909.78;29395;228;63009;-58
2023/12/15 00:01:01;;;;;;;0.60;0.60;;;;;;;2.51;100.00;97901.97;29395;196;63004;-62
2023/12/15 00:01:32;;;;;;;0.60;0.60;;;;;;;2.51;100.00;97899.28;29395;209;63009;-64
2023/12/15 00:02:03;;;;;;;0.60;0.60;;;;;;;2.53;100.00;97910.63;29395;271;63004;-59
2023/12/15 00:02:34;;;;;;;0.60;0.60;;;;;;;2.54;100.00;97908.75;29395;242;63008;-59
2023/12/15 00:03:06;;;;;;;0.60;0.60;;;;;;;2.54;100.00;97903.41;29395;230;63004;-64
2023/12/15 00:03:37;;;;;;;0.60;0.60;;;;;;;2.56;100.00;97902.16;29395;236;63009;-59
2023/12/15 00:04:08;;;;;;;0.60;0.60;;;;;;;2.58;100.00;97908.09;29394;219;64009;-59
2023/12/15 00:04:39;;;;;;;0.60;0.60;;;;;;;2.58;100.00;97902.75;29395;198;63009;-63
2023/12/15 00:05:11;;;;;;;0.60;0.60;;;;;;;2.57;100.00;97901.09;29395;206;63005;-62
2023/12/15 00:05:43;;;;;;;0.60;0.60;;;;;;;2.59;100.00;97903.56;29395;219;63009;-59
2023/12/15 00:06:14;;;;;;;0.60;0.60;;;;;;;2.59;100.00;97907.06;29395;205;63005;-66
2023/12/15 00:06:45;;;;;;;0.60;0.60;;;;;;;2.59;100.00;97903.56;29395;214;63009;-59
2023/12/15 00:07:16;;;;;;;0.60;0.60;;;;;;;2.57;100.00;97901.09;29394;226;64005;-60
2023/12/15 00:07:50;;;;;;;0.60;0.60;;;;;;;2.59;100.00;97898.22;29395;226;63009;-63
2023/12/15 00:08:22;;;;;;;0.60;0.60;;;;;;;2.61;100.00;97906.84;29395;224;63004;-60
2023/12/15 00:08:53;;;;;;;0.60;0.60;;;;;;;2.64;100.00;97906.44;29395;233;63009;-66
2023/12/15 00:09:25;;;;;;;0.60;0.60;;;;;;;2.68;100.00;97902.28;29394;218;64009;-61
2023/12/15 00:09:56;;;;;;;0.60;0.60;;;;;;;2.71;100.00;97906.38;29395;223;63009;-67
2023/12/15 00:10:27;;;;;;;0.60;0.60;;;;;;;2.69;100.00;97902.06;29395;204;63004;-65
2023/12/15 00:11:01;;;;;;;0.60;0.60;;;;;;;2.71;100.00;97912.56;29395;202;63009;-60
2023/12/15 00:11:32;;;;;;;0.60;0.60;;;;;;;2.71;100.00;97909.06;29395;217;63005;-59
2023/12/15 00:12:04;;;;;;;0.60;0.60;;;;;;;2.69;100.00;97911.97;29395;296;63009;-58
2023/12/15 00:12:36;;;;;;;0.60;0.60;;;;;;;2.68;100.00;97910.31;29395;225;63005;-60
2023/12/15 00:13:07;;;;;;;0.70;0.70;;;;;;;2.72;100.00;97913.37;29395;260;63009;-58
2023/12/15 00:13:38;;;;;;;0.60;0.60;;;;;;;2.76;100.00;97910.06;29395;216;63008;-66
2023/12/15 00:14:09;;;;;;;1.23;1.23;;;;;;;2.76;100.00;97909.22;29395;363;63009;-60
2023/12/15 00:14:41;;;;;;;0.60;0.60;;;;;;;2.76;100.00;97915.41;29394;238;64009;-68
2023/12/15 00:15:12;;;;;;;0.60;0.60;;;;;;;2.78;100.00;97912.47;29395;218;63004;-60
2023/12/15 00:15:44;;;;;;;0.60;0.60;;;;;;;2.78;100.00;97917.84;29395;202;63004;-59
2023/12/15 00:16:15;;;;;;;0.60;0.60;;;;;;;2.77;100.00;97916.22;29395;204;63009;-59
2023/12/15 00:16:47;;;;;;;0.60;0.60;;;;;;;2.79;100.00;97919.50;29395;261;63004;-61
2023/12/15 00:17:18;;;;;;;0.80;0.80;;;;;;;2.81;100.00;97922.78;29395;218;63008;-61
2023/12/15 00:17:49;;;;;;;0.60;0.60;;;;;;;2.83;100.00;97926.06;29395;310;63008;-64
2023/12/15 00:18:21;;;;;;;0.70;0.70;;;;;;;2.80;100.00;97921.94;29395;224;63009;-62
2023/12/15 00:18:52;;;;;;;0.60;0.60;;;;;;;2.78;100.00;97916.00;29395;258;63005;-66
2023/12/15 00:19:23;;;;;;;0.60;0.60;;;;;;;2.79;100.00;97916.81;29395;220;63009;-59
2023/12/15 00:19:54;;;;;;;0.80;0.80;;;;;;;2.81;100.00;97925.44;29394;205;64009;-63
2023/12/15 00:20:26;;;;;;;0.70;0.70;;;;;;;2.87;100.00;97921.91;29395;254;63009;-58
2023/12/15 00:20:57;;;;;;;0.75;0.75;;;;;;;2.90;100.00;97929.50;29395;216;63005;-60
2023/12/15 00:21:28;;;;;;;0.60;0.60;;;;;;;2.92;100.00;97922.91;29395;296;63009;-63
2023/12/15 00:21:59;;;;;;;0.60;0.60;;;;;;;2.94;100.00;97925.34;29395;198;63004;-58
2023/12/15 00:22:30;;;;;;;0.60;0.60;;;;;;;2.95;100.00;97921.63;29395;198;63009;-59
2023/12/15 00:23:01;;;;;;;0.60;0.60;;;;;;;2.94;100.00;97930.72;29395;214;63004;-70
2023/12/15 00:23:34;;;;;;;0.60;0.60;;;;;;;2.94;100.00;97928.03;29394;239;64009;-64
2023/12/15 00:24:08;;;;;;;0.60;0.60;;;;;;;2.90;100.00;97926.84;29395;246;63004;-65
2023/12/15 00:24:41;;;;;;;0.60;0.60;;;;;;;2.85;100.00;97932.03;29395;233;63008;-59
2023/12/15 00:25:13;;;;;;;0.60;0.60;;;;;;;2.83;100.00;97929.56;29394;216;64009;-61
2023/12/15 00:25:45;;;;;;;0.60;0.60;;;;;;;2.79;100.00;97930.22;29395;268;63009;-67
2023/12/15 00:26:16;;;;;;;0.60;0.60;;;;;;;2.78;100.00;97928.56;29395;203;63005;-59
2023/12/15 00:26:47;;;;;;;0.60;0.60;;;;;;;2.78;100.00;97934.75;29395;242;63009;-63
2023/12/15 00:27:18;;;;;;;0.70;0.70;;;;;;;2.80;100.00;97930.00;29395;338;63005;-67
2023/12/15 00:27:51;;;;;;;0.60;0.60;;;;;;;2.80;100.00;97934.53;29395;245;63009;-63
2023/12/15 00:28:23;;;;;;;0.62;0.62;;;;;;;2.79;100.00;97935.56;29395;198;63005;-59
2023/12/15 00:28:54;;;;;;;0.60;0.60;;;;;;;2.77;100.00;97929.63;29395;224;63009;-59
2023/12/15 00:29:25;;;;;;;0.60;0.60;;;;;;;2.75;100.00;97929.03;29395;224;63004;-60
2023/12/15 00:29:57;;;;;;;0.60;0.60;;;;;;;2.75;100.00;97934.38;29395;199;63009;-59
2023/12/15 00:30:28;;;;;;;0.60;0.60;;;;;;;2.72;100.00;97934.81;29394;202;64009;-66
2023/12/15 00:31:00;;;;;;;0.60;0.60;;;;;;;2.71;100.00;97938.53;29395;366;63009;-59
2023/12/15 00:31:32;;;;;;;0.60;0.60;;;;;;;2.71;100.00;97938.53;29395;202;63004;-59
2023/12/15 00:32:04;;;;;;;0.60;0.60;;;;;;;2.69;100.00;97936.91;29395;367;63008;-58
2023/12/15 00:32:38;;;;;;;0.60;0.60;;;;;;;2.64;100.00;97931.38;29395;212;63004;-58
2023/12/15 00:33:10;;;;;;;0.60;0.60;;;;;;;2.62;100.00;97930.75;29395;244;63009;-60
2023/12/15 00:33:53;;;;;;;0.62;0.62;;;;;;;2.59;100.00;97931.19;29395;205;63005;-59
2023/12/15 00:34:25;;;;;;;0.60;0.60;;;;;;;2.60;100.00;97932.00;29395;319;63009;-58
2023/12/15 00:34:56;;;;;;;0.60;0.60;;;;;;;2.61;100.00;97937.16;29395;230;63005;-65
2023/12/15 00:35:27;;;;;;;0.60;0.60;;;;;;;2.62;100.00;97938.78;29395;199;63009;-65
2023/12/15 00:36:02;;;;;;;0.60;0.60;;;;;;;2.61;100.00;97934.47;29394;232;64009;-59
2023/12/15 00:36:34;;;;;;;0.60;0.60;;;;;;;2.61;100.00;97933.66;29395;361;63009;-67
2023/12/15 00:37:05;;;;;;;0.60;0.60;;;;;;;2.61;100.00;97939.84;29395;222;63004;-65
2023/12/15 00:37:36;;;;;;;0.60;0.60;;;;;;;2.60;100.00;97940.88;29395;197;63009;-59
2023/12/15 00:38:07;;;;;;;0.60;0.60;;;;;;;2.59;100.00;97939.22;29395;224;63004;-66
2023/12/15 00:38:38;;;;;;;0.73;0.73;;;;;;;2.64;100.00;97939.41;29395;204;63009;-59
2023/12/15 00:39:10;;;;;;;0.70;0.70;;;;;;;2.76;100.00;97941.41;29395;224;63004;-66
2023/12/15 00:39:41;;;;;;;0.60;0.60;;;;;;;2.76;100.00;97939.53;29395;236;63008;-65
2023/12/15 00:40:13;;;;;;;0.60;0.60;;;;;;;2.72;100.00;97946.38;29395;243;63005;-60
2023/12/15 00:40:45;;;;;;;0.60;0.60;;;;;;;2.72;100.00;97946.38;29395;286;63009;-60
2023/12/15 00:41:16;;;;;;;0.60;0.60;;;;;;;2.77;100.00;97948.41;29394;245;64009;-67
2023/12/15 00:41:47;;;;;;;0.60;0.60;;;;;;;2.77;100.00;97943.03;29395;322;63018;-59
2023/12/15 00:42:19;;;;;;;0.60;0.60;;;;;;;2.78;100.00;97947.31;29395;210;63005;-58
2023/12/15 00:42:50;;;;;;;0.60;0.60;;;;;;;2.78;100.00;97950.00;29395;271;63009;-67
2023/12/15 00:43:21;;;;;;;0.60;0.60;;;;;;;2.78;100.00;97955.38;29395;199;63005;-64
2023/12/15 00:43:52;;;;;;;0.65;0.65;;;;;;;2.76;100.00;97954.78;29395;231;63009;-65
2023/12/15 00:44:24;;;;;;;0.60;0.60;;;;;;;2.73;100.00;97952.53;29395;211;63004;-59
2023/12/15 00:44:56;;;;;;;0.60;0.60;;;;;;;2.75;100.00;97956.66;29395;216;63009;-59
2023/12/15 00:45:28;;;;;;;0.70;0.70;;;;;;;2.79;100.00;97952.47;29395;214;63015;-61
2023/12/15 00:45:59;;;;;;;0.60;0.60;;;;;;;2.79;100.00;97957.84;29395;237;63009;-61
2023/12/15 00:46:31;;;;;;;2.80;1.77;;;;;;;2.79;100.00;97951.66;29394;199;64009;-64
2023/12/15 00:47:03;;;;;;;0.70;0.70;;;;;;;2.82;100.00;97952.03;29395;229;63008;-59
2023/12/15 00:47:34;;;;;;;0.60;0.60;;;;;;;2.79;100.00;97960.50;29395;202;63004;-62
2023/12/15 00:48:05;;;;;;;0.60;0.60;;;;;;;2.80;100.00;97956.78;29395;281;63009;-66
2023/12/15 00:48:36;;;;;;;0.60;0.60;;;;;;;2.82;100.00;97961.94;29395;203;63010;-60
2023/12/15 00:49:08;;;;;;;0.60;0.60;;;;;;;2.85;100.00;97962.34;29395;380;63009;-63
2023/12/15 00:49:39;;;;;;;0.68;0.68;;;;;;;2.88;100.00;97967.25;29395;245;63005;-61
2023/12/15 00:50:11;;;;;;;0.60;0.60;;;;;;;2.92;100.00;97968.47;29395;202;63009;-63
2023/12/15 00:50:43;;;;;;;0.70;0.70;;;;;;;2.93;100.00;97966.59;29395;288;63005;-63
2023/12/15 00:51:15;;;;;;;0.70;0.70;;;;;;;2.90;100.00;97969.72;29395;211;63016;-61
2023/12/15 00:51:47;;;;;;;0.80;0.80;;;;;;;2.87;100.00;97965.63;29394;214;64009;-60
2023/12/15 00:52:20;;;;;;;2.35;2.25;;;;;;;2.83;100.00;97971.63;29395;196;63009;-60
2023/12/15 00:52:51;;;;;;;0.68;0.68;;;;;;;2.79;100.00;97967.72;29395;202;63004;-65
2023/12/15 00:53:24;;;;;;;0.60;0.60;;;;;;;2.78;100.00;97966.91;29395;325;63009;-66
2023/12/15 00:53:55;;;;;;;0.60;0.60;;;;;;;2.74;100.00;97968.41;29395;214;63004;-63
2023/12/15 00:54:26;;;;;;;0.60;0.60;;;;;;;2.69;100.00;97969.06;29395;202;63008;-60
2023/12/15 00:54:58;;;;;;;0.60;0.60;;;;;;;2.77;100.00;97964.47;29395;205;63004;-61
2023/12/15 00:55:29;;;;;;;0.60;0.60;;;;;;;2.77;100.00;97975.19;29395;199;63009;-60
2023/12/15 00:56:01;;;;;;;0.60;0.60;;;;;;;2.73;100.00;97963.25;29395;218;63005;-64
2023/12/15 00:56:32;;;;;;;0.60;0.60;;;;;;;2.69;100.00;97963.69;29395;210;63009;-63
2023/12/15 00:57:04;;;;;;;0.60;0.60;;;;;;;2.65;100.00;97973.19;29394;198;64009;-66
2023/12/15 00:57:35;;;;;;;0.60;0.60;;;;;;;2.67;100.00;97971.13;29395;207;63009;-66
2023/12/15 00:58:07;;;;;;;0.73;0.73;;;;;;;2.66;100.00;97969.47;29395;204;63005;-59
2023/12/15 00:58:38;;;;;;;0.68;0.68;;;;;;;2.66;100.00;97969.47;29395;204;63009;-64
2023/12/15 00:59:10;;;;;;;0.70;0.70;;;;;;;2.68;100.00;97975.44;29394;224;64004;-63
2023/12/15 00:59:41;;;;;;;0.60;0.60;;;;;;;2.67;100.00;97971.13;29395;203;63018;-63
2023/12/15 01:00:13;;;;;;;0.60;0.60;;;;;;;2.62;100.00;97973.63;29395;203;63004;-59
2023/12/15 01:00:45;;;;;;;0.60;0.60;;;;;;;2.59;100.00;97973.25;29395;231;63009;-67
2023/12/15 01:01:16;;;;;;;0.68;0.68;;;;;;;2.58;100.00;97977.78;29395;213;63008;-62
2023/12/15 01:01:47;;;;;;;0.70;0.70;;;;;;;2.58;100.00;97971.59;29395;286;63008;-64
2023/12/15 01:02:18;;;;;;;0.60;0.60;;;;;;;2.57;100.00;97972.63;29394;203;64008;-59
2023/12/15 01:02:49;;;;;;;0.60;0.60;;;;;;;2.54;100.00;97975.72;29395;240;63009;-59
2023/12/15 01:03:21;;;;;;;0.62;0.62;;;;;;;2.49;100.00;97979.06;29395;235;63005;-59
2023/12/15 01:03:52;;;;;;;0.60;0.60;;;;;;;2.53;100.00;97974.91;29395;270;63020;-68
2023/12/15 01:04:27;;;;;;;0.60;0.60;;;;;;;2.51;100.00;97982.34;29395;249;63005;-63
2023/12/15 01:04:58;;;;;;;0.60;0.60;;;;;;;2.46;100.00;97978.66;29395;211;63009;-63
2023/12/15 01:05:29;;;;;;;0.60;0.60;;;;;;;2.46;100.00;97984.84;29395;236;63005;-58
2023/12/15 01:06:00;;;;;;;0.60;0.60;;;;;;;2.42;100.00;97980.97;29395;207;63009;-63
2023/12/15 01:06:31;;;;;;;0.60;0.60;;;;;;;2.41;100.00;97976.66;29395;202;63007;-66
2023/12/15 01:07:03;;;;;;;0.60;0.60;;;;;;;2.39;100.00;97985.94;29395;239;63009;-59
2023/12/15 01:07:34;;;;;;;0.60;0.60;;;;;;;2.37;100.00;97986.16;29394;254;64009;-64
2023/12/15 01:08:06;;;;;;;0.60;0.60;;;;;;;2.35;100.00;97993.56;29395;233;63009;-64
2023/12/15 01:08:37;;;;;;;0.60;0.60;;;;;;;2.36;100.00;97984.50;29395;236;63004;-64
2023/12/15 01:09:08;;;;;;;0.60;0.60;;;;;;;2.35;100.00;97988.22;29395;326;63008;-58
2023/12/15 01:09:39;;;;;;;0.60;0.60;;;;;;;2.32;100.00;97986.78;29395;254;63005;-62
2023/12/15 01:10:11;;;;;;;0.60;0.60;;;;;;;2.32;100.00;97985.97;29395;215;63009;-63
2023/12/15 01:10:42;;;;;;;0.70;0.70;;;;;;;2.31;100.00;97993.16;29395;244;63005;-58
2023/12/15 01:11:14;;;;;;;0.60;0.60;;;;;;;2.31;100.00;97982.47;29395;231;63009;-63
2023/12/15 01:11:45;;;;;;;0.70;0.70;;;;;;;2.30;100.00;97990.72;29395;206;63005;-58
2023/12/15 01:12:16;;;;;;;0.60;0.60;;;;;;;2.28;100.00;97990.91;29395;245;63018;-60
2023/12/15 01:12:48;;;;;;;0.60;0.60;;;;;;;2.29;100.00;97991.75;29394;212;64009;-59
2023/12/15 01:13:19;;;;;;;0.60;0.60;;;;;;;2.31;100.00;97987.00;29395;198;63009;-63
2023/12/15 01:13:50;;;;;;;0.70;0.70;;;;;;;2.32;100.00;97991.31;29395;243;63004;-59
2023/12/15 01:14:21;;;;;;;0.70;0.70;;;;;;;2.33;100.00;97995.63;29395;249;63018;-58
2023/12/15 01:14:53;;;;;;;0.70;0.70;;;;;;;2.31;100.00;97992.34;29395;249;63004;-58
2023/12/15 01:15:24;;;;;;;0.60;0.60;;;;;;;2.29;100.00;97994.41;29395;294;63009;-63
2023/12/15 01:15:55;;;;;;;0.60;0.60;;;;;;;2.27;100.00;97988.44;29395;196;63004;-62
2023/12/15 01:16:26;;;;;;;0.60;0.60;;;;;;;2.28;100.00;97995.44;29395;362;63008;-58
2023/12/15 01:16:59;;;;;;;0.70;0.70;;;;;;;2.27;100.00;98000.00;29395;203;63004;-59
2023/12/15 01:17:30;;;;;;;0.60;0.60;;;;;;;2.28;100.00;97987.41;29395;203;63023;-59
2023/12/15 01:18:01;;;;;;;0.60;0.60;;;;;;;2.29;100.00;97994.41;29394;220;64009;-58
2023/12/15 01:18:33;;;;;;;0.60;0.60;;;;;;;2.29;100.00;97994.41;29395;305;63009;-58
2023/12/15 01:19:04;;;;;;;0.60;0.60;;;;;;;2.27;100.00;97997.31;29395;205;63005;-58
2023/12/15 01:19:35;;;;;;;0.70;0.70;;;;;;;2.28;100.00;98004.31;29395;251;63019;-58
2023/12/15 01:20:10;;;;;;;0.60;0.60;;;;;;;2.28;100.00;98000.81;29395;214;63005;-59
2023/12/15 01:20:43;;;;;;;0.60;0.60;;;;;;;2.28;100.00;97995.44;29395;224;63009;-64
2023/12/15 01:21:14;;;;;;;0.60;0.60;;;;;;;2.27;100.00;97996.50;29395;209;63005;-59
2023/12/15 01:21:45;;;;;;;0.60;0.60;;;;;;;2.27;100.00;98004.53;29395;238;63004;-63
2023/12/15 01:22:16;;;;;;;0.60;0.60;;;;;;;2.27;100.00;98004.53;29395;231;63004;-62
2023/12/15 01:22:48;;;;;;;0.60;0.60;;;;;;;2.26;100.00;98010.91;29395;202;63009;-58
2023/12/15 01:23:19;;;;;;;0.60;0.60;;;;;;;2.26;100.00;98005.56;29394;275;64009;-60
2023/12/15 01:23:50;;;;;;;0.60;0.60;;;;;;;2.24;100.00;98003.09;29395;241;63008;-58
2023/12/15 01:24:21;;;;;;;0.60;0.60;;;;;;;2.25;100.00;98009.25;29395;285;63004;-63
2023/12/15 01:24:57;;;;;;;0.60;0.60;;;;;;;2.25;100.00;98011.94;29395;212;63009;-63
2023/12/15 01:25:31;;;;;;;0.60;0.60;;;;;;;2.24;100.00;98012.97;29395;200;63005;-59
2023/12/15 01:26:04;;;;;;;0.60;0.60;;;;;;;2.24;100.00;98015.66;29395;216;63009;-58
2023/12/15 01:26:35;;;;;;;0.60;0.60;;;;;;;2.24;100.00;98012.97;29395;236;63005;-60
2023/12/15 01:27:06;;;;;;;0.60;0.60;;;;;;;2.23;100.00;98016.69;29395;336;63018;-58
2023/12/15 01:27:37;;;;;;;0.60;0.60;;;;;;;2.23;100.00;98011.34;29395;212;63005;-59
2023/12/15 01:28:08;;;;;;;0.60;0.60;;;;;;;2.23;100.00;98016.69;29395;204;63009;-58
2023/12/15 01:28:40;;;;;;;0.62;0.62;;;;;;;2.22;100.00;98018.53;29394;234;64009;-59
2023/12/15 01:29:11;;;;;;;0.62;0.62;;;;;;;2.22;100.00;98020.41;29395;196;63009;-59
2023/12/15 01:29:42;;;;;;;0.60;0.60;;;;;;;2.22;100.00;98021.22;29395;302;63004;-62
2023/12/15 01:30:17;;;;;;;0.70;0.70;;;;;;;2.22;100.00;98020.41;29395;235;63009;-59
2023/12/15 01:30:48;;;;;;;0.60;0.60;;;;;;;2.23;100.00;98027.41;29395;318;63004;-58
2023/12/15 01:31:21;;;;;;;0.60;0.60;;;;;;;2.22;100.00;98021.22;29395;220;63008;-59
2023/12/15 01:31:52;;;;;;;0.60;0.60;;;;;;;2.22;100.00;98025.75;29395;289;63000;-58
2023/12/15 01:32:23;;;;;;;0.60;0.60;;;;;;;2.22;100.00;98026.56;29395;200;63009;-63
2023/12/15 01:32:55;;;;;;;0.60;0.60;;;;;;;2.22;100.00;98023.06;29395;207;63005;-58
2023/12/15 01:33:26;;;;;;;0.60;0.60;;;;;;;2.20;100.00;98025.97;29395;219;63009;-58
2023/12/15 01:33:58;;;;;;;0.60;0.60;;;;;;;2.21;100.00;98027.59;29394;203;64009;-59
2023/12/15 01:34:29;;;;;;;0.60;0.60;;;;;;;2.23;100.00;98030.06;29395;203;63016;-61
2023/12/15 01:35:01;;;;;;;0.60;0.60;;;;;;;2.24;100.00;98035.22;29395;211;63005;-63
2023/12/15 01:35:35;;;;;;;0.60;0.60;;;;;;;2.25;100.00;98034.19;29395;211;63009;-63
2023/12/15 01:36:07;;;;;;;0.60;0.60;;;;;;;2.24;100.00;98034.41;29395;227;63005;-59
2023/12/15 01:36:38;;;;;;;0.60;0.60;;;;;;;2.25;100.00;98036.88;29395;285;63009;-59
2023/12/15 01:37:09;;;;;;;0.60;0.60;;;;;;;2.25;100.00;98049.44;29395;343;63004;-63
2023/12/15 01:37:41;;;;;;;0.70;0.70;;;;;;;2.24;100.00;98035.22;29394;274;64009;-64
2023/12/15 01:38:12;;;;;;;0.57;0.57;;;;;;;2.26;100.00;98043.03;29395;371;63004;-58
2023/12/15 01:38:43;;;;;;;0.70;0.70;;;;;;;2.28;100.00;98038.31;29395;239;63009;-59
2023/12/15 01:39:15;;;;;;;0.70;0.70;;;;;;;2.28;100.00;98040.97;29394;210;64008;-63
2023/12/15 01:39:46;;;;;;;0.60;0.60;;;;;;;2.28;100.00;98035.63;29395;197;63009;-59
2023/12/15 01:40:17;;;;;;;0.60;0.60;;;;;;;2.27;100.00;98044.69;29395;224;63016;-58
2023/12/15 01:40:49;;;;;;;0.60;0.60;;;;;;;2.25;100.00;98042.22;29395;321;63009;-58
2023/12/15 01:41:23;;;;;;;0.70;0.70;;;;;;;2.26;100.00;98048.41;29395;202;63001;-62
2023/12/15 01:41:55;;;;;;;0.60;0.60;;;;;;;2.25;100.00;98052.13;29395;217;63009;-61
2023/12/15 01:42:27;;;;;;;0.70;0.70;;;;;;;2.26;100.00;98045.72;29395;363;63005;-64
2023/12/15 01:43:00;;;;;;;0.70;0.70;;;;;;;2.28;100.00;98040.97;29395;264;63009;-59
2023/12/15 01:43:32;;;;;;;0.60;0.60;;;;;;;2.25;100.00;98047.56;29395;202;63005;-63
2023/12/15 01:44:05;;;;;;;0.60;0.60;;;;;;;2.23;100.00;98057.69;29395;213;63009;-60
2023/12/15 01:44:39;;;;;;;0.60;0.60;;;;;;;2.21;100.00;98058.91;29394;205;64009;-61
2023/12/15 01:45:11;;;;;;;0.60;0.60;;;;;;;2.21;100.00;98050.87;29395;204;63015;-63
2023/12/15 01:45:43;;;;;;;0.60;0.60;;;;;;;2.24;100.00;98053.16;29395;221;63004;-62
2023/12/15 01:46:14;;;;;;;0.68;0.68;;;;;;;2.24;100.00;98055.81;29395;233;63009;-60
2023/12/15 01:46:45;;;;;;;0.60;0.60;;;;;;;2.30;100.00;98044.28;29395;218;63000;-62
2023/12/15 01:47:18;;;;;;;0.60;0.60;;;;;;;2.35;100.00;98057.84;29394;295;64013;-59
2023/12/15 01:47:49;;;;;;;0.60;0.60;;;;;;;2.34;100.00;98048.16;29395;309;63018;-61
2023/12/15 01:48:24;;;;;;;0.80;0.80;;;;;;;2.38;100.00;98052.06;29395;215;63019;-64
2023/12/15 01:48:55;;;;;;;0.60;0.60;;;;;;;2.38;100.00;98052.06;29395;231;63005;-59
2023/12/15 01:49:31;;;;;;;0.60;0.60;;;;;;;2.37;100.00;98050.44;29395;235;63009;-62
2023/12/15 01:50:07;;;;;;;0.60;0.60;;;;;;;2.35;100.00;98047.97;29395;227;63005;-61
2023/12/15 01:50:39;;;;;;;0.60;0.60;;;;;;;2.35;100.00;98049.81;29395;284;63013;-62
2023/12/15 01:51:10;;;;;;;0.60;0.60;;;;;;;2.31;100.00;98052.09;29395;196;63005;-59
2023/12/15 01:51:43;;;;;;;0.60;0.60;;;;;;;2.30;100.00;98060.34;29395;196;63009;-63
2023/12/15 01:52:14;;;;;;;0.70;0.70;;;;;;;2.30;100.00;98049.63;29395;218;63004;-59
2023/12/15 01:52:45;;;;;;;0.60;0.60;;;;;;;2.31;100.00;98057.44;29394;214;64013;-61
2023/12/15 01:53:17;;;;;;;0.60;0.60;;;;;;;2.34;100.00;98056.22;29395;197;63004;-62
2023/12/15 01:53:48;;;;;;;0.60;0.60;;;;;;;2.33;100.00;98049.19;29395;267;63009;-60
2023/12/15 01:54:19;;;;;;;0.60;0.60;;;;;;;2.32;100.00;98045.72;29395;227;63009;-63
2023/12/15 01:54:51;;;;;;;0.60;0.60;;;;;;;2.32;100.00;98064.44;29395;232;63009;-62
2023/12/15 01:55:22;;;;;;;0.68;0.68;;;;;;;2.35;100.00;98057.84;29395;233;63005;-63
2023/12/15 01:55:53;;;;;;;0.60;0.60;;;;;;;2.35;100.00;98055.19;29395;202;63009;-61
2023/12/15 01:56:24;;;;;;;0.60;0.60;;;;;;;2.34;100.00;98050.84;29395;212;63005;-62
2023/12/15 01:56:56;;;;;;;0.60;0.60;;;;;;;2.33;100.00;98062.59;29394;238;64009;-60
2023/12/15 01:57:27;;;;;;;0.60;0.60;;;;;;;2.32;100.00;98058.28;29395;312;63005;-62
2023/12/15 01:57:58;;;;;;;0.60;0.60;;;;;;;2.30;100.00;98054.97;29394;308;64013;-60
2023/12/15 01:58:29;;;;;;;0.60;0.60;;;;;;;2.30;100.00;98063.00;29395;367;63005;-63
2023/12/15 01:59:00;;;;;;;0.60;0.60;;;;;;;2.29;100.00;98064.06;29395;202;63009;-61
2023/12/15 01:59:46;;;;;;;0.98;0.98;;;;;;;2.28;100.00;98059.72;29395;239;63004;-62
2023/12/15 02:00:17;;;;;;;0.60;0.60;;;;;;;2.28;100.00;98059.72;29395;278;63009;-61
2023/12/15 02:00:49;;;;;;;0.60;0.60;;;;;;;2.27;100.00;98066.13;29395;293;63004;-59
2023/12/15 02:01:20;;;;;;;0.60;0.60;;;;;;;2.25;100.00;98057.47;29395;372;63009;-61
2023/12/15 02:01:51;;;;;;;0.60;0.60;;;;;;;2.24;100.00;98056.66;29395;202;63004;-60
2023/12/15 02:02:24;;;;;;;0.60;0.60;;;;;;;2.22;100.00;98069.41;29395;221;63008;-60
2023/12/15 02:02:55;;;;;;;0.60;0.60;;;;;;;2.20;100.00;98057.28;29395;250;63005;-62
2023/12/15 02:03:29;;;;;;;0.60;0.60;;;;;;;2.19;100.00;98058.31;29394;219;64031;-61
2023/12/15 02:04:03;;;;;;;0.60;0.60;;;;;;;2.19;100.00;98063.66;29395;292;63005;-62
2023/12/15 02:04:35;;;;;;;0.60;0.60;;;;;;;2.18;100.00;98067.38;29395;211;63009;-59
2023/12/15 02:05:06;;;;;;;0.60;0.60;;;;;;;2.17;100.00;98053.16;29395;322;63005;-59
2023/12/15 02:05:38;;;;;;;0.60;0.60;;;;;;;2.17;100.00;98065.72;29395;196;63009;-59
2023/12/15 02:06:09;;;;;;;0.60;0.60;;;;;;;2.15;100.00;98054.41;29395;209;63004;-60
2023/12/15 02:06:40;;;;;;;0.60;0.60;;;;;;;2.13;100.00;98061.81;29395;211;63009;-60
2023/12/15 02:07:12;;;;;;;0.60;0.60;;;;;;;2.11;100.00;98062.03;29395;306;63004;-60
2023/12/15 02:07:43;;;;;;;0.60;0.60;;;;;;;2.10;100.00;98057.72;29395;242;63009;-62
2023/12/15 02:08:14;;;;;;;0.57;0.57;;;;;;;2.08;100.00;98057.09;29395;211;63004;-62
2023/12/15 02:08:47;;;;;;;0.60;0.60;;;;;;;2.08;100.00;98062.44;29394;258;64028;-61
2023/12/15 02:09:19;;;;;;;0.60;0.60;;;;;;;2.07;100.00;98066.19;29395;255;63008;-61
2023/12/15 02:09:50;;;;;;;0.60;0.60;;;;;;;2.05;100.00;98068.25;29395;218;63008;-61
2023/12/15 02:10:21;;;;;;;0.60;0.60;;;;;;;2.04;100.00;98065.78;29395;219;63014;-60
2023/12/15 02:10:52;;;;;;;0.60;0.60;;;;;;;2.03;100.00;98066.81;29395;263;63009;-63
2023/12/15 02:11:23;;;;;;;0.60;0.60;;;;;;;2.03;100.00;98069.50;29395;257;63005;-62
2023/12/15 02:11:55;;;;;;;0.60;0.60;;;;;;;2.02;100.00;98063.31;29395;225;63009;-60
2023/12/15 02:12:26;;;;;;;0.60;0.60;;;;;;;2.01;100.00;98062.50;29395;229;63005;-59
2023/12/15 02:12:57;;;;;;;0.98;0.98;;;;;;;2.01;100.00;98062.50;29395;216;63014;-59
2023/12/15 02:13:28;;;;;;;0.60;0.60;;;;;;;2.01;100.00;98059.81;29395;197;63004;-59
2023/12/15 02:14:00;;;;;;;0.60;0.60;;;;;;;2.00;100.00;98058.16;29394;300;64013;-59
2023/12/15 02:14:31;;;;;;;0.60;0.60;;;;;;;2.00;100.00;98060.84;29395;335;63004;-58
2023/12/15 02:15:03;;;;;;;0.60;0.60;;;;;;;1.98;100.00;98068.25;29395;289;63013;-58
2023/12/15 02:15:34;;;;;;;0.60;0.60;;;;;;;1.98;100.00;98067.44;29395;197;63004;-59
2023/12/15 02:16:07;;;;;;;0.60;0.60;;;;;;;1.95;100.00;98063.31;29395;236;63023;-59
2023/12/15 02:16:38;;;;;;;0.60;0.60;;;;;;;1.95;100.00;98071.34;29395;205;63004;-59
2023/12/15 02:17:11;;;;;;;0.60;0.60;;;;;;;1.94;100.00;98061.69;29395;250;63009;-59
2023/12/15 02:17:42;;;;;;;0.60;0.60;;;;;;;1.94;100.00;98066.22;29395;198;63005;-60
2023/12/15 02:18:13;;;;;;;0.60;0.60;;;;;;;1.94;100.00;98066.22;29395;350;63009;-58
2023/12/15 02:18:45;;;;;;;0.60;0.60;;;;;;;1.93;100.00;98064.56;29395;214;63005;-59
2023/12/15 02:19:16;;;;;;;0.60;0.60;;;;;;;1.91;100.00;98059.41;29394;202;64013;-60
2023/12/15 02:19:47;;;;;;;0.60;0.60;;;;;;;1.90;100.00;98063.13;29395;293;63005;-59
2023/12/15 02:20:19;;;;;;;0.60;0.60;;;;;;;1.87;100.00;98063.53;29395;222;63009;-60
2023/12/15 02:20:50;;;;;;;0.68;0.68;;;;;;;1.87;100.00;98068.88;29395;221;63005;-61
2023/12/15 02:21:21;;;;;;;0.60;0.60;;;;;;;1.87;100.00;98066.22;29395;202;63009;-61
2023/12/15 02:21:52;;;;;;;0.60;0.60;;;;;;;1.87;100.00;98066.22;29395;267;63004;-60
2023/12/15 02:22:29;;;;;;;0.60;0.60;;;;;;;1.87;100.00;98065.37;29395;207;63016;-61
2023/12/15 02:23:00;;;;;;;0.60;0.60;;;;;;;1.86;100.00;98067.25;29395;313;63004;-60
2023/12/15 02:23:33;;;;;;;0.60;0.60;;;;;;;1.85;100.00;98062.94;29395;218;63004;-59
2023/12/15 02:24:04;;;;;;;0.60;0.60;;;;;;;1.85;100.00;98060.25;29394;241;64004;-60
2023/12/15 02:24:39;;;;;;;0.60;0.60;;;;;;;1.85;100.00;98068.28;29394;197;64014;-59
2023/12/15 02:25:10;;;;;;;0.60;0.60;;;;;;;1.84;100.00;98066.63;29395;229;63005;-60
2023/12/15 02:25:41;;;;;;;1.25;1.25;;;;;;;1.85;100.00;98068.28;29395;218;63009;-59
2023/12/15 02:26:13;;;;;;;0.60;0.60;;;;;;;1.85;100.00;98064.78;29395;228;63005;-59
2023/12/15 02:26:44;;;;;;;0.60;0.60;;;;;;;1.86;100.00;98071.78;29395;267;63005;-59
2023/12/15 02:27:15;;;;;;;0.60;0.60;;;;;;;1.85;100.00;98062.94;29394;234;64009;-60
2023/12/15 02:27:47;;;;;;;0.60;0.60;;;;;;;1.84;100.00;98063.94;29395;209;63009;-57
2023/12/15 02:28:19;;;;;;;0.60;0.60;;;;;;;1.84;100.00;98071.97;29395;301;63005;-58
2023/12/15 02:28:51;;;;;;;0.60;0.60;;;;;;;1.84;100.00;98061.28;29395;237;63009;-58
2023/12/15 02:29:26;;;;;;;0.60;0.60;;;;;;;1.80;100.00;98064.56;29395;224;63004;-59
2023/12/15 02:29:58;;;;;;;0.60;0.60;;;;;;;1.80;100.00;98064.56;29395;359;63009;-59
2023/12/15 02:30:29;;;;;;;0.70;0.70;;;;;;;1.80;100.00;98065.41;29395;225;63004;-60
2023/12/15 02:31:01;;;;;;;0.60;0.60;;;;;;;1.79;100.00;98063.75;29395;222;63008;-58
2023/12/15 02:31:32;;;;;;;0.60;0.60;;;;;;;1.77;100.00;98068.50;29394;233;64008;-60